Time;durP1;ratioP1;P1;durP2;ratioP2;P2;SDS_P1;SDS_P2;PMS_P1;PMS_P2;Temp;Humidity;BMP_temperature;BMP_pressure;BME280_temperature;BME280_humidity;BME280_pressure;Samples;Min_cycle;Max_cycle;Signal;HPM_P1;HPM_P2
2021/06/28 00:00:57;;;;;;;1.55;1.40;;;;;;;;;;4994148;28;20431;-76
2021/06/28 00:03:23;;;;;;;1.33;1.23;;;;;;;;;;4993992;28;20475;-75
2021/06/28 00:05:49;;;;;;;1.10;1.10;;;;;;;;;;5001159;28;20055;-75
2021/06/28 00:08:15;;;;;;;1.13;1.13;;;;;;;;;;5005204;28;20117;-75
2021/06/28 00:10:42;;;;;;;0.90;0.90;;;;;;;;;;5011920;28;20041;-75
2021/06/28 00:13:08;;;;;;;1.02;1.00;;;;;;;;;;4994698;28;20031;-75
2021/06/28 00:15:38;;;;;;;1.52;1.42;;;;;;;;;;4994531;28;20084;-75
2021/06/28 00:18:08;;;;;;;1.80;1.42;;;;;;;;;;4993979;28;20034;-75
2021/06/28 00:20:34;;;;;;;1.48;1.38;;;;;;;;;;4993235;28;20038;-75
2021/06/28 00:23:01;;;;;;;1.58;1.40;;;;;;;;;;4994357;28;20383;-75
2021/06/28 00:25:27;;;;;;;1.73;1.17;;;;;;;;;;4993884;28;20041;-75
2021/06/28 00:27:54;;;;;;;1.35;1.25;;;;;;;;;;4993832;28;20029;-76
2021/06/28 00:30:20;;;;;;;0.90;0.90;;;;;;;;;;4994049;28;20391;-76
2021/06/28 00:32:47;;;;;;;0.73;0.73;;;;;;;;;;4996134;28;20031;-75
2021/06/28 00:35:14;;;;;;;1.00;1.00;;;;;;;;;;5001813;28;20026;-75
2021/06/28 00:37:41;;;;;;;1.38;0.98;;;;;;;;;;5010199;28;20026;-75
2021/06/28 00:40:08;;;;;;;2.03;1.30;;;;;;;;;;5016756;28;20109;-74
2021/06/28 00:42:34;;;;;;;0.98;0.98;;;;;;;;;;5008846;28;20050;-74
2021/06/28 00:45:00;;;;;;;1.30;1.10;;;;;;;;;;4998126;28;20022;-74
2021/06/28 00:47:26;;;;;;;3.05;1.10;;;;;;;;;;4997855;28;20062;-74
2021/06/28 00:49:52;;;;;;;1.40;1.30;;;;;;;;;;4996889;28;20030;-74
2021/06/28 00:52:18;;;;;;;1.30;0.90;;;;;;;;;;4996947;28;20490;-74
2021/06/28 00:54:44;;;;;;;1.15;0.80;;;;;;;;;;4997090;28;20022;-74
2021/06/28 00:57:10;;;;;;;1.02;1.02;;;;;;;;;;4997089;28;20034;-75
2021/06/28 00:59:37;;;;;;;1.35;1.10;;;;;;;;;;4997205;28;20093;-74
2021/06/28 01:02:05;;;;;;;1.20;1.10;;;;;;;;;;4996903;28;20420;-74
2021/06/28 01:04:32;;;;;;;1.05;1.05;;;;;;;;;;4996396;28;20065;-74
2021/06/28 01:06:58;;;;;;;1.48;1.00;;;;;;;;;;5005203;28;20072;-75
2021/06/28 01:09:24;;;;;;;1.02;0.98;;;;;;;;;;4992831;28;20476;-74
2021/06/28 01:11:50;;;;;;;0.90;0.90;;;;;;;;;;4993358;28;20100;-75
2021/06/28 01:14:18;;;;;;;1.23;1.02;;;;;;;;;;4992973;28;20034;-75
2021/06/28 01:16:44;;;;;;;1.10;1.10;;;;;;;;;;4992713;28;20419;-75
2021/06/28 01:19:14;;;;;;;1.45;1.10;;;;;;;;;;4992584;28;20050;-75
2021/06/28 01:21:41;;;;;;;1.10;1.10;;;;;;;;;;4993393;28;20424;-75
2021/06/28 01:24:07;;;;;;;0.90;0.90;;;;;;;;;;4975631;28;20393;-75
2021/06/28 01:26:33;;;;;;;0.90;0.90;;;;;;;;;;4997356;28;20037;-75
2021/06/28 01:28:59;;;;;;;0.90;0.90;;;;;;;;;;4993030;28;20023;-75
2021/06/28 01:31:25;;;;;;;0.70;0.70;;;;;;;;;;4992209;28;20154;-75
2021/06/28 01:33:51;;;;;;;1.15;1.08;;;;;;;;;;4992986;28;20099;-75
2021/06/28 01:36:17;;;;;;;1.02;1.02;;;;;;;;;;5001328;28;20429;-75
2021/06/28 01:38:43;;;;;;;1.08;0.98;;;;;;;;;;5011020;28;20030;-75
2021/06/28 01:41:09;;;;;;;1.83;1.00;;;;;;;;;;5014263;28;20398;-75
2021/06/28 01:43:35;;;;;;;3.38;1.10;;;;;;;;;;4996232;28;20396;-75
2021/06/28 01:46:02;;;;;;;1.15;1.05;;;;;;;;;;4995333;28;20034;-75
2021/06/28 01:48:28;;;;;;;0.98;0.70;;;;;;;;;;4992861;28;20026;-75
2021/06/28 01:50:54;;;;;;;0.88;0.88;;;;;;;;;;4993196;28;20038;-74
2021/06/28 01:53:20;;;;;;;0.90;0.90;;;;;;;;;;4975590;28;20115;-75
2021/06/28 01:55:46;;;;;;;4.25;1.30;;;;;;;;;;4992918;28;20027;-75
2021/06/28 01:58:14;;;;;;;0.80;0.80;;;;;;;;;;4993208;28;20030;-74
2021/06/28 02:00:40;;;;;;;2.42;0.80;;;;;;;;;;4992694;28;20019;-74
2021/06/28 02:03:07;;;;;;;2.20;1.15;;;;;;;;;;4993010;28;20052;-74
2021/06/28 02:05:34;;;;;;;1.10;1.10;;;;;;;;;;4997818;28;20364;-74
2021/06/28 02:08:00;;;;;;;2.30;1.25;;;;;;;;;;5003929;28;20475;-74
2021/06/28 02:10:27;;;;;;;1.83;1.38;;;;;;;;;;5011786;28;20030;-74
2021/06/28 02:12:53;;;;;;;1.83;1.40;;;;;;;;;;5012312;28;20029;-74
2021/06/28 02:15:23;;;;;;;3.13;1.60;;;;;;;;;;5009081;28;20085;-74
2021/06/28 02:17:49;;;;;;;1.95;1.23;;;;;;;;;;4992798;28;20031;-74
2021/06/28 02:20:16;;;;;;;1.67;1.30;;;;;;;;;;4992419;28;20035;-74
2021/06/28 02:22:42;;;;;;;1.63;1.30;;;;;;;;;;5003744;28;20046;-74
2021/06/28 02:25:10;;;;;;;1.23;1.13;;;;;;;;;;4998422;28;20101;-74
2021/06/28 02:27:37;;;;;;;1.23;1.10;;;;;;;;;;4992526;28;20433;-74
2021/06/28 02:30:05;;;;;;;1.15;1.00;;;;;;;;;;4975069;28;20031;-74
2021/06/28 02:32:31;;;;;;;0.80;0.80;;;;;;;;;;4993139;28;20036;-74
2021/06/28 02:34:57;;;;;;;0.95;0.95;;;;;;;;;;4993254;28;20030;-74
2021/06/28 02:37:23;;;;;;;1.67;1.27;;;;;;;;;;5008381;28;20094;-75
2021/06/28 02:39:50;;;;;;;0.80;0.80;;;;;;;;;;4993230;28;20443;-75
2021/06/28 02:42:16;;;;;;;1.08;0.95;;;;;;;;;;4992579;28;20019;-75
2021/06/28 02:44:42;;;;;;;1.13;1.05;;;;;;;;;;4995261;28;20030;-75
2021/06/28 02:47:09;;;;;;;0.82;0.82;;;;;;;;;;4995670;28;20031;-75
2021/06/28 02:49:35;;;;;;;0.85;0.85;;;;;;;;;;4995652;28;20041;-75
2021/06/28 02:52:01;;;;;;;1.00;0.88;;;;;;;;;;4995854;28;20380;-74
2021/06/28 02:54:27;;;;;;;1.02;0.90;;;;;;;;;;4996701;28;20034;-75
2021/06/28 02:56:53;;;;;;;0.80;0.80;;;;;;;;;;4996417;28;20026;-74
2021/06/28 02:59:19;;;;;;;0.63;0.63;;;;;;;;;;4978547;28;20404;-75
2021/06/28 03:01:46;;;;;;;1.00;0.90;;;;;;;;;;4995721;28;20480;-75
2021/06/28 03:04:12;;;;;;;0.75;0.75;;;;;;;;;;4995751;28;20025;-75
2021/06/28 03:06:38;;;;;;;0.80;0.80;;;;;;;;;;5003777;28;20018;-75
2021/06/28 03:09:05;;;;;;;0.98;0.98;;;;;;;;;;5012590;28;20022;-74
2021/06/28 03:11:31;;;;;;;0.82;0.82;;;;;;;;;;5015395;28;20042;-75
2021/06/28 03:13:57;;;;;;;0.90;0.90;;;;;;;;;;4997818;28;20030;-74
2021/06/28 03:16:23;;;;;;;1.17;0.73;;;;;;;;;;5015300;28;20058;-75
2021/06/28 03:18:49;;;;;;;1.17;0.90;;;;;;;;;;4982357;28;20416;-75
2021/06/28 03:21:15;;;;;;;0.80;0.75;;;;;;;;;;4995159;28;20058;-75
2021/06/28 03:23:42;;;;;;;0.95;0.90;;;;;;;;;;4995244;28;20161;-74
2021/06/28 03:26:09;;;;;;;0.88;0.88;;;;;;;;;;4995206;28;20026;-75
2021/06/28 03:28:35;;;;;;;0.60;0.60;;;;;;;;;;4994272;28;20105;-75
2021/06/28 03:31:02;;;;;;;1.52;0.90;;;;;;;;;;4994868;28;20033;-75
2021/06/28 03:33:29;;;;;;;0.95;0.93;;;;;;;;;;4994443;28;20491;-75
2021/06/28 03:35:55;;;;;;;1.15;0.80;;;;;;;;;;4997015;28;20082;-75
2021/06/28 03:38:21;;;;;;;1.13;1.08;;;;;;;;;;4996437;28;20081;-75
2021/06/28 03:40:47;;;;;;;0.93;0.90;;;;;;;;;;4994688;28;20550;-75
2021/06/28 03:43:14;;;;;;;0.90;0.80;;;;;;;;;;4995135;28;20227;-75
2021/06/28 03:45:40;;;;;;;1.17;0.80;;;;;;;;;;4995163;28;20101;-75
2021/06/28 03:48:07;;;;;;;1.25;1.15;;;;;;;;;;4977215;28;20033;-75
2021/06/28 03:50:33;;;;;;;0.90;0.90;;;;;;;;;;4995175;28;20027;-75
2021/06/28 03:52:59;;;;;;;0.70;0.70;;;;;;;;;;4994863;28;20026;-75
2021/06/28 03:55:25;;;;;;;1.17;1.08;;;;;;;;;;4994499;28;20503;-75
2021/06/28 03:57:52;;;;;;;0.93;0.88;;;;;;;;;;4994680;28;20113;-75
2021/06/28 04:00:19;;;;;;;1.58;1.13;;;;;;;;;;4994863;28;20057;-77
2021/06/28 04:02:45;;;;;;;1.08;1.00;;;;;;;;;;4995078;28;20033;-76
2021/06/28 04:05:18;;;;;;;1.10;1.00;;;;;;;;;;4996492;28;20034;-77
2021/06/28 04:07:44;;;;;;;1.10;0.98;;;;;;;;;;5005946;28;20028;-77
2021/06/28 04:10:11;;;;;;;1.33;1.23;;;;;;;;;;5002182;28;20037;-76
2021/06/28 04:12:37;;;;;;;1.00;1.00;;;;;;;;;;4994721;28;20033;-77
2021/06/28 04:15:04;;;;;;;1.10;0.98;;;;;;;;;;4994503;28;20034;-76
2021/06/28 04:17:30;;;;;;;3.45;1.20;;;;;;;;;;4976983;28;20057;-76
2021/06/28 04:19:56;;;;;;;8.27;1.92;;;;;;;;;;4993995;28;20458;-76
2021/06/28 04:22:23;;;;;;;2.92;1.30;;;;;;;;;;4994287;28;20022;-76
2021/06/28 04:24:49;;;;;;;2.08;1.23;;;;;;;;;;4994632;28;20395;-76
2021/06/28 04:27:15;;;;;;;1.38;0.90;;;;;;;;;;4994516;28;20026;-76
2021/06/28 04:29:41;;;;;;;1.10;1.00;;;;;;;;;;4993689;28;20038;-76
2021/06/28 04:32:07;;;;;;;1.30;1.20;;;;;;;;;;4976803;28;20383;-77
2021/06/28 04:34:33;;;;;;;1.25;1.17;;;;;;;;;;4993949;28;20426;-77
2021/06/28 04:36:59;;;;;;;1.30;1.20;;;;;;;;;;5002656;28;20027;-79
2021/06/28 04:39:25;;;;;;;1.20;1.10;;;;;;;;;;5013635;28;20368;-77
2021/06/28 04:41:51;;;;;;;1.27;1.17;;;;;;;;;;4979291;28;20034;-77
2021/06/28 04:44:17;;;;;;;1.00;1.00;;;;;;;;;;4994058;28;20038;-76
2021/06/28 04:46:45;;;;;;;1.90;1.05;;;;;;;;;;4993846;28;20084;-77
2021/06/28 04:49:12;;;;;;;2.03;1.35;;;;;;;;;;4993019;28;20027;-74
2021/06/28 04:51:39;;;;;;;1.60;1.50;;;;;;;;;;4992927;28;20434;-75
2021/06/28 04:54:05;;;;;;;1.70;1.60;;;;;;;;;;4993340;28;20026;-76
2021/06/28 04:56:31;;;;;;;3.88;1.95;;;;;;;;;;4993038;28;20109;-75
2021/06/28 04:58:58;;;;;;;1.33;1.23;;;;;;;;;;4993167;28;20022;-75
2021/06/28 05:01:24;;;;;;;1.60;1.50;;;;;;;;;;4992850;28;20022;-76
2021/06/28 05:03:50;;;;;;;2.25;1.20;;;;;;;;;;4998914;28;20025;-76
2021/06/28 05:06:16;;;;;;;4.47;1.83;;;;;;;;;;5001008;28;20025;-76
2021/06/28 05:08:42;;;;;;;1.58;1.17;;;;;;;;;;4993838;28;20041;-76
2021/06/28 05:11:08;;;;;;;1.65;1.52;;;;;;;;;;4992435;28;20039;-75
2021/06/28 05:13:34;;;;;;;1.38;1.27;;;;;;;;;;4992409;28;20098;-76
2021/06/28 05:16:00;;;;;;;0.93;0.93;;;;;;;;;;4993207;28;20153;-76
2021/06/28 05:18:26;;;;;;;1.48;1.00;;;;;;;;;;4992302;28;20117;-78
2021/06/28 05:20:53;;;;;;;1.52;1.30;;;;;;;;;;4992757;28;20483;-76
2021/06/28 05:23:20;;;;;;;3.35;1.50;;;;;;;;;;4976387;28;20033;-76
2021/06/28 05:25:46;;;;;;;3.95;2.30;;;;;;;;;;4993029;28;20019;-76
2021/06/28 05:28:12;;;;;;;1.20;1.10;;;;;;;;;;4993368;28;20033;-76
2021/06/28 05:30:39;;;;;;;2.83;1.48;;;;;;;;;;4993410;28;20027;-76
2021/06/28 05:33:05;;;;;;;1.98;1.25;;;;;;;;;;4993058;28;20045;-75
2021/06/28 05:35:31;;;;;;;1.30;1.20;;;;;;;;;;4997782;28;20088;-76
2021/06/28 05:37:57;;;;;;;1.60;1.50;;;;;;;;;;5001932;28;20060;-76
2021/06/28 05:40:23;;;;;;;1.98;1.30;;;;;;;;;;4992873;28;20058;-76
2021/06/28 05:42:50;;;;;;;1.50;1.35;;;;;;;;;;4992630;28;20031;-76
2021/06/28 05:45:16;;;;;;;2.13;1.50;;;;;;;;;;4992661;28;20038;-76
2021/06/28 05:47:42;;;;;;;1.60;1.50;;;;;;;;;;4992796;28;20086;-77
2021/06/28 05:50:11;;;;;;;2.58;1.65;;;;;;;;;;4981607;28;20032;-76
2021/06/28 05:52:37;;;;;;;1.65;1.35;;;;;;;;;;5003161;28;20069;-76
2021/06/28 05:55:04;;;;;;;1.52;1.20;;;;;;;;;;4992480;28;20061;-76
2021/06/28 05:57:30;;;;;;;1.50;1.40;;;;;;;;;;4995171;28;20026;-76
2021/06/28 05:59:56;;;;;;;1.50;1.40;;;;;;;;;;4995974;28;20391;-75
2021/06/28 06:02:22;;;;;;;1.15;1.15;;;;;;;;;;4985918;28;20045;-76
2021/06/28 06:04:48;;;;;;;1.25;1.23;;;;;;;;;;4989050;28;20131;-77
2021/06/28 06:07:15;;;;;;;1.70;1.60;;;;;;;;;;5002782;28;20569;-76
2021/06/28 06:09:41;;;;;;;1.55;1.30;;;;;;;;;;5010983;28;20030;-76
2021/06/28 06:12:07;;;;;;;1.83;1.73;;;;;;;;;;5011621;28;20550;-76
2021/06/28 06:14:34;;;;;;;1.90;1.73;;;;;;;;;;4992441;28;20061;-76
2021/06/28 06:17:00;;;;;;;1.30;1.30;;;;;;;;;;4993058;28;20058;-76
2021/06/28 06:19:26;;;;;;;1.90;1.80;;;;;;;;;;4998030;28;20105;-78
2021/06/28 06:21:52;;;;;;;1.80;1.70;;;;;;;;;;4999756;28;20438;-77
2021/06/28 06:24:20;;;;;;;1.50;1.50;;;;;;;;;;4979754;28;20053;-77
2021/06/28 06:26:46;;;;;;;1.67;1.67;;;;;;;;;;4979223;28;20431;-75
2021/06/28 06:29:13;;;;;;;1.83;1.73;;;;;;;;;;4996833;28;20022;-76
2021/06/28 06:31:39;;;;;;;2.30;1.55;;;;;;;;;;5001821;28;20015;-76
2021/06/28 06:34:05;;;;;;;1.45;1.40;;;;;;;;;;4998511;28;20053;-75
2021/06/28 06:36:31;;;;;;;3.35;1.75;;;;;;;;;;4987222;28;20026;-76
2021/06/28 06:38:57;;;;;;;1.65;1.55;;;;;;;;;;5012757;28;20050;-76
2021/06/28 06:41:23;;;;;;;1.80;1.70;;;;;;;;;;5016424;28;20148;-76
2021/06/28 06:43:49;;;;;;;1.60;1.60;;;;;;;;;;5001114;28;20018;-76
2021/06/28 06:46:15;;;;;;;1.77;1.67;;;;;;;;;;4997112;28;20037;-78
2021/06/28 06:48:41;;;;;;;2.28;2.17;;;;;;;;;;4993610;28;20034;-75
2021/06/28 06:51:07;;;;;;;1.60;1.60;;;;;;;;;;5004247;28;20022;-78
2021/06/28 06:53:33;;;;;;;2.20;2.10;;;;;;;;;;4996244;28;20034;-76
2021/06/28 06:56:05;;;;;;;1.65;1.55;;;;;;;;;;4996141;28;20037;-76
2021/06/28 06:58:31;;;;;;;1.70;1.60;;;;;;;;;;4995639;28;20435;-76
2021/06/28 07:00:57;;;;;;;2.00;1.90;;;;;;;;;;4995613;28;20027;-76
2021/06/28 07:03:23;;;;;;;2.83;2.20;;;;;;;;;;4996071;28;20023;-76
2021/06/28 07:05:49;;;;;;;1.92;1.80;;;;;;;;;;5003694;28;20383;-76
2021/06/28 07:08:16;;;;;;;1.58;1.58;;;;;;;;;;5006553;28;20087;-76
2021/06/28 07:10:46;;;;;;;1.85;1.75;;;;;;;;;;4997851;28;20482;-75
2021/06/28 07:13:12;;;;;;;1.85;1.75;;;;;;;;;;4996332;28;20030;-75
2021/06/28 07:15:38;;;;;;;1.80;1.70;;;;;;;;;;4973974;28;20173;-75
2021/06/28 07:18:05;;;;;;;1.77;1.67;;;;;;;;;;5002528;28;20067;-75
2021/06/28 07:20:33;;;;;;;1.60;1.50;;;;;;;;;;4985553;28;20033;-74
2021/06/28 07:22:59;;;;;;;1.90;1.80;;;;;;;;;;5012020;28;20093;-75
2021/06/28 07:25:25;;;;;;;3.10;2.00;;;;;;;;;;4997333;28;20516;-75
2021/06/28 07:27:51;;;;;;;2.13;2.03;;;;;;;;;;4995010;28;20116;-74
2021/06/28 07:30:19;;;;;;;2.20;2.05;;;;;;;;;;4993835;28;20391;-75
2021/06/28 07:32:45;;;;;;;2.53;2.15;;;;;;;;;;4994692;28;20034;-75
2021/06/28 07:35:12;;;;;;;1.95;1.85;;;;;;;;;;4996971;28;20108;-75
2021/06/28 07:37:38;;;;;;;2.92;2.00;;;;;;;;;;5006246;28;20097;-75
2021/06/28 07:40:05;;;;;;;2.03;1.63;;;;;;;;;;5014329;28;20036;-75
2021/06/28 07:42:31;;;;;;;2.30;2.10;;;;;;;;;;5010509;28;20545;-76
2021/06/28 07:44:57;;;;;;;1.95;1.75;;;;;;;;;;4995389;28;20084;-75
2021/06/28 07:47:25;;;;;;;1.90;1.75;;;;;;;;;;4994225;28;20130;-75
2021/06/28 07:49:51;;;;;;;1.92;1.83;;;;;;;;;;4998312;28;20602;-76
2021/06/28 07:52:17;;;;;;;2.67;1.90;;;;;;;;;;5006873;28;20044;-74
2021/06/28 07:54:44;;;;;;;2.00;1.88;;;;;;;;;;5007374;28;20041;-76
2021/06/28 07:57:11;;;;;;;3.00;2.10;;;;;;;;;;4994503;28;20110;-76
2021/06/28 07:59:37;;;;;;;1.92;1.80;;;;;;;;;;4995177;28;20125;-76
2021/06/28 08:02:05;;;;;;;1.90;1.80;;;;;;;;;;4994928;28;20034;-76
2021/06/28 08:04:31;;;;;;;2.47;2.20;;;;;;;;;;4998570;28;20018;-75
2021/06/28 08:06:57;;;;;;;2.30;2.10;;;;;;;;;;5005637;28;20486;-75
2021/06/28 08:09:24;;;;;;;2.60;2.20;;;;;;;;;;5013708;28;20121;-76
2021/06/28 08:11:51;;;;;;;2.08;1.98;;;;;;;;;;5015821;28;20510;-76
2021/06/28 08:14:18;;;;;;;1.90;1.80;;;;;;;;;;5004276;28;20030;-75
2021/06/28 08:16:44;;;;;;;3.28;2.15;;;;;;;;;;4995328;28;20053;-75
2021/06/28 08:19:11;;;;;;;1.70;1.60;;;;;;;;;;4992311;28;20113;-76
2021/06/28 08:21:38;;;;;;;1.73;1.63;;;;;;;;;;4984454;28;20026;-77
2021/06/28 08:24:05;;;;;;;2.20;2.00;;;;;;;;;;4993672;28;20217;-76
2021/06/28 08:26:32;;;;;;;1.52;1.48;;;;;;;;;;4993801;28;20042;-77
2021/06/28 08:29:02;;;;;;;3.08;1.65;;;;;;;;;;4994277;28;20037;-76
2021/06/28 08:31:28;;;;;;;2.40;2.20;;;;;;;;;;4994290;28;20010;-76
2021/06/28 08:33:54;;;;;;;3.53;1.92;;;;;;;;;;4993454;28;20014;-76
2021/06/28 08:36:20;;;;;;;4.70;1.77;;;;;;;;;;5002028;28;20288;-77
2021/06/28 08:38:47;;;;;;;2.88;2.65;;;;;;;;;;4991262;28;20076;-77
2021/06/28 08:41:17;;;;;;;2.17;1.90;;;;;;;;;;5013921;28;20061;-76
2021/06/28 08:43:45;;;;;;;1.90;1.80;;;;;;;;;;5013941;28;20025;-77
2021/06/28 08:46:12;;;;;;;4.13;2.08;;;;;;;;;;4995939;28;20022;-76
2021/06/28 08:48:40;;;;;;;3.58;1.83;;;;;;;;;;4993161;28;20520;-76
2021/06/28 08:51:06;;;;;;;1.90;1.80;;;;;;;;;;5001314;28;20080;-76
2021/06/28 08:53:32;;;;;;;3.80;1.55;;;;;;;;;;5007255;28;20022;-76
2021/06/28 08:55:58;;;;;;;4.25;1.63;;;;;;;;;;5001341;28;20062;-77
2021/06/28 08:58:26;;;;;;;1.92;1.42;;;;;;;;;;4993915;28;20034;-76
2021/06/28 09:00:52;;;;;;;2.88;1.40;;;;;;;;;;4995060;28;20038;-76
2021/06/28 09:03:20;;;;;;;2.65;1.70;;;;;;;;;;4993381;28;20061;-77
2021/06/28 09:05:50;;;;;;;2.00;1.67;;;;;;;;;;5000408;28;20084;-76
2021/06/28 09:08:17;;;;;;;4.35;1.90;;;;;;;;;;5004763;28;20108;-76
2021/06/28 09:10:44;;;;;;;1.90;1.60;;;;;;;;;;5013297;28;20022;-76
2021/06/28 09:13:11;;;;;;;1.95;1.48;;;;;;;;;;5013037;28;20048;-76
2021/06/28 09:15:42;;;;;;;1.92;1.13;;;;;;;;;;5008990;28;20040;-77
2021/06/28 09:18:08;;;;;;;;;;;;;;;;;;4994042;28;20106;-77
2021/06/28 09:20:35;;;;;;;1.73;1.48;;;;;;;;;;4991155;28;20441;-78
2021/06/28 09:23:15;;;;;;;1.58;1.48;;;;;;;;;;5007254;28;20048;-77
2021/06/28 09:25:41;;;;;;;1.55;1.50;;;;;;;;;;5006602;28;20301;-77
2021/06/28 09:28:07;;;;;;;1.48;1.48;;;;;;;;;;4994064;28;20046;-77
2021/06/28 09:30:39;;;;;;;1.33;1.33;;;;;;;;;;4994741;28;20027;-76
2021/06/28 09:33:06;;;;;;;2.03;1.77;;;;;;;;;;4998581;28;20026;-77
2021/06/28 09:35:34;;;;;;;1.58;1.48;;;;;;;;;;5000698;28;20034;-77
2021/06/28 09:38:20;;;;;;;3.05;1.92;;;;;;;;;;4995910;28;20031;-77
2021/06/28 09:40:46;;;;;;;2.75;1.58;;;;;;;;;;5000678;28;20038;-77
2021/06/28 09:43:21;;;;;;;1.85;1.50;;;;;;;;;;4980718;28;20019;-77
2021/06/28 09:45:51;;;;;;;1.60;1.50;;;;;;;;;;4993169;28;20515;-77
2021/06/28 09:48:27;;;;;;;1.70;1.60;;;;;;;;;;5001315;28;20033;-77
2021/06/28 09:51:12;;;;;;;3.25;1.58;;;;;;;;;;4991457;28;20030;-75
2021/06/28 09:53:38;;;;;;;3.55;1.80;;;;;;;;;;4993990;28;20038;-77
2021/06/28 09:56:04;;;;;;;1.48;1.38;;;;;;;;;;5007523;28;20093;-77
2021/06/28 09:58:30;;;;;;;1.50;1.40;;;;;;;;;;4993955;28;20102;-76
2021/06/28 10:00:57;;;;;;;2.72;1.40;;;;;;;;;;4996963;28;20096;-78
2021/06/28 10:03:26;;;;;;;4.30;1.50;;;;;;;;;;5006704;28;20061;-77
2021/06/28 10:08:44;;;;;;;1.95;1.30;;;;;;;;;;4995402;28;20045;-77
2021/06/28 10:11:20;;;;;;;1.50;1.40;;;;;;;;;;4999054;28;20053;-77
2021/06/28 10:13:53;;;;;;;1.50;1.40;;;;;;;;;;4999208;28;20057;-78
2021/06/28 10:16:21;;;;;;;1.95;1.85;;;;;;;;;;5001576;28;20014;-78
2021/06/28 10:18:47;;;;;;;1.40;1.30;;;;;;;;;;4999048;28;20451;-77
2021/06/28 10:21:14;;;;;;;1.80;1.70;;;;;;;;;;5011583;28;20109;-77
2021/06/28 10:23:40;;;;;;;3.53;1.55;;;;;;;;;;4994577;28;20026;-77
2021/06/28 10:26:06;;;;;;;2.58;1.25;;;;;;;;;;5004590;28;20029;-77
2021/06/28 10:28:33;;;;;;;1.60;1.50;;;;;;;;;;5005313;28;20031;-77
2021/06/28 10:31:00;;;;;;;2.22;1.52;;;;;;;;;;4999810;28;20029;-77
2021/06/28 10:33:26;;;;;;;1.90;1.50;;;;;;;;;;4999632;28;20029;-77
2021/06/28 10:35:59;;;;;;;2.67;1.70;;;;;;;;;;5003806;28;20034;-77
2021/06/28 10:38:25;;;;;;;1.33;1.20;;;;;;;;;;5007359;28;20036;-77
2021/06/28 10:40:52;;;;;;;2.63;1.20;;;;;;;;;;5000322;28;20476;-77
2021/06/28 10:43:27;;;;;;;1.33;1.23;;;;;;;;;;5000430;28;20485;-79
2021/06/28 10:45:54;;;;;;;1.95;1.10;;;;;;;;;;5007957;28;20088;-77
2021/06/28 10:48:21;;;;;;;1.50;1.40;;;;;;;;;;4997072;28;20041;-77
2021/06/28 10:50:52;;;;;;;1.38;1.27;;;;;;;;;;4985557;28;20490;-77
2021/06/28 10:53:19;;;;;;;1.37;1.23;;;;;;;;;;5001030;28;20034;-81
2021/06/28 10:55:45;;;;;;;1.25;1.15;;;;;;;;;;4977875;28;20368;-77
2021/06/28 10:58:27;;;;;;;0.80;0.80;;;;;;;;;;4979204;28;20109;-77
2021/06/28 11:01:01;;;;;;;1.05;1.05;;;;;;;;;;4997726;28;20089;-78
2021/06/28 11:03:32;;;;;;;2.78;1.10;;;;;;;;;;4999052;28;20022;-77
2021/06/28 11:06:14;;;;;;;1.02;1.00;;;;;;;;;;5006311;28;20608;-77
2021/06/28 11:08:58;;;;;;;1.02;1.00;;;;;;;;;;4995782;28;20026;-77
2021/06/28 11:11:43;;;;;;;0.98;0.98;;;;;;;;;;4977051;28;20505;-78
2021/06/28 11:14:29;;;;;;;1.33;1.23;;;;;;;;;;4985410;28;20046;-77
2021/06/28 11:17:12;;;;;;;2.10;1.48;;;;;;;;;;4993449;28;20503;-76
2021/06/28 11:20:03;;;;;;;3.22;1.38;;;;;;;;;;4994891;28;20030;-77
2021/06/28 11:22:32;;;;;;;1.40;1.30;;;;;;;;;;4990535;28;20017;-77
2021/06/28 11:25:01;;;;;;;1.48;1.38;;;;;;;;;;5003311;28;20025;-75
2021/06/28 11:27:27;;;;;;;1.13;0.98;;;;;;;;;;5005166;28;20034;-75
2021/06/28 11:29:54;;;;;;;1.25;1.15;;;;;;;;;;4998890;28;20026;-76
2021/06/28 11:32:24;;;;;;;1.40;1.20;;;;;;;;;;4996643;28;20077;-77
2021/06/28 11:34:50;;;;;;;4.55;1.17;;;;;;;;;;4998101;28;20026;-77
2021/06/28 11:37:16;;;;;;;1.10;1.10;;;;;;;;;;5007120;28;20502;-76
2021/06/28 11:40:02;;;;;;;1.05;1.05;;;;;;;;;;5015855;28;20451;-77
2021/06/28 11:42:33;;;;;;;2.30;0.98;;;;;;;;;;5002866;28;20026;-77
2021/06/28 11:44:59;;;;;;;4.07;1.10;;;;;;;;;;5012764;28;20081;-77
2021/06/28 11:47:44;;;;;;;1.63;1.13;;;;;;;;;;5016332;28;20022;-77
2021/06/28 11:50:25;;;;;;;1.75;1.65;;;;;;;;;;5017158;28;20108;-77
2021/06/28 11:53:06;;;;;;;2.65;1.30;;;;;;;;;;4998954;28;20030;-76
2021/06/28 11:55:33;;;;;;;0.77;0.77;;;;;;;;;;4983943;28;20117;-78
2021/06/28 11:58:00;;;;;;;1.48;1.10;;;;;;;;;;4998230;28;20037;-76
2021/06/28 12:00:26;;;;;;;2.65;1.20;;;;;;;;;;4995694;28;20391;-75
2021/06/28 12:03:11;;;;;;;1.08;1.08;;;;;;;;;;5004459;28;20026;-76
2021/06/28 12:05:38;;;;;;;1.23;1.20;;;;;;;;;;5010051;28;20033;-77
2021/06/28 12:08:04;;;;;;;1.27;1.20;;;;;;;;;;5011132;28;20018;-77
2021/06/28 12:10:30;;;;;;;1.30;1.10;;;;;;;;;;5018667;28;20023;-77
2021/06/28 12:12:57;;;;;;;1.30;1.20;;;;;;;;;;5002935;28;20149;-77
2021/06/28 12:15:27;;;;;;;2.05;1.60;;;;;;;;;;4998787;28;20491;-77
2021/06/28 12:17:53;;;;;;;3.42;1.23;;;;;;;;;;4996925;28;20050;-77
2021/06/28 12:20:20;;;;;;;3.22;1.13;;;;;;;;;;5013604;28;20021;-80
2021/06/28 12:22:48;;;;;;;1.10;1.10;;;;;;;;;;5010272;28;20018;-77
2021/06/28 12:25:15;;;;;;;0.85;0.85;;;;;;;;;;4998106;28;20101;-76
2021/06/28 12:27:43;;;;;;;3.60;1.10;;;;;;;;;;5008507;28;20363;-76
2021/06/28 12:30:11;;;;;;;1.20;1.10;;;;;;;;;;5006278;28;20058;-76
2021/06/28 12:32:55;;;;;;;2.20;1.38;;;;;;;;;;5006999;28;20506;-76
2021/06/28 12:35:25;;;;;;;1.77;1.08;;;;;;;;;;4998917;28;20040;-77
2021/06/28 12:37:52;;;;;;;1.20;1.10;;;;;;;;;;5006359;28;20056;-76
2021/06/28 12:40:20;;;;;;;2.00;1.30;;;;;;;;;;4979738;28;20030;-77
2021/06/28 12:42:46;;;;;;;1.50;1.30;;;;;;;;;;4981007;28;20026;-77
2021/06/28 12:45:13;;;;;;;1.67;1.20;;;;;;;;;;4999164;28;20077;-77
2021/06/28 12:47:39;;;;;;;1.10;1.10;;;;;;;;;;4980540;28;20125;-77
2021/06/28 12:50:06;;;;;;;1.67;1.40;;;;;;;;;;4979648;28;20054;-77
2021/06/28 12:52:34;;;;;;;1.27;1.17;;;;;;;;;;4994861;28;20022;-76
2021/06/28 12:55:03;;;;;;;1.63;1.50;;;;;;;;;;4998072;28;20034;-77
2021/06/28 12:57:30;;;;;;;3.40;1.08;;;;;;;;;;4996392;28;20399;-77
2021/06/28 12:59:56;;;;;;;2.05;1.20;;;;;;;;;;4993215;28;20027;-77
2021/06/28 13:02:32;;;;;;;1.48;1.40;;;;;;;;;;4980832;28;20030;-78
2021/06/28 13:05:04;;;;;;;2.47;1.40;;;;;;;;;;5000775;28;20026;-77
2021/06/28 13:07:30;;;;;;;1.00;1.00;;;;;;;;;;5007039;28;20018;-77
2021/06/28 13:09:58;;;;;;;3.88;1.25;;;;;;;;;;5015738;28;20030;-77
2021/06/28 13:12:27;;;;;;;1.55;1.02;;;;;;;;;;4998870;28;20042;-78
2021/06/28 13:15:17;;;;;;;1.30;1.20;;;;;;;;;;5004532;28;20506;-78
2021/06/28 13:17:43;;;;;;;1.27;0.90;;;;;;;;;;4994676;28;20375;-77
2021/06/28 13:20:21;;;;;;;1.23;1.20;;;;;;;;;;4993139;28;20034;-77
2021/06/28 13:22:47;;;;;;;2.35;1.20;;;;;;;;;;4992942;28;20020;-77
2021/06/28 13:25:18;;;;;;;1.30;1.20;;;;;;;;;;4993857;28;20094;-77
2021/06/28 13:27:44;;;;;;;1.00;1.00;;;;;;;;;;4993480;28;20034;-77
2021/06/28 13:30:24;;;;;;;2.58;1.60;;;;;;;;;;4994241;28;20106;-77
2021/06/28 13:33:05;;;;;;;2.10;1.27;;;;;;;;;;4994055;28;20034;-77
2021/06/28 13:35:36;;;;;;;;;;;;;;;;;;4982395;28;20060;-76
2021/06/28 13:38:25;;;;;;;1.40;1.30;;;;;;;;;;5004479;28;20271;-76
2021/06/28 13:41:00;;;;;;;1.50;1.30;;;;;;;;;;4984742;28;20522;-76
2021/06/28 13:43:29;;;;;;;1.35;1.30;;;;;;;;;;5012844;28;20026;-76
2021/06/28 13:45:57;;;;;;;3.72;1.30;;;;;;;;;;4998195;28;20026;-77
2021/06/28 13:48:28;;;;;;;0.70;0.70;;;;;;;;;;4992522;28;20387;-77
2021/06/28 13:50:54;;;;;;;2.38;1.05;;;;;;;;;;4999991;28;20034;-77
2021/06/28 13:53:22;;;;;;;2.35;1.10;;;;;;;;;;5012643;28;20029;-77
2021/06/28 13:55:50;;;;;;;17.25;1.60;;;;;;;;;;5002127;28;20042;-77
2021/06/28 13:58:20;;;;;;;1.30;1.20;;;;;;;;;;4991787;28;20037;-78
2021/06/28 14:00:47;;;;;;;1.80;1.70;;;;;;;;;;4992747;28;20037;-77
2021/06/28 14:03:16;;;;;;;2.10;1.30;;;;;;;;;;4992596;28;20261;-77
2021/06/28 14:05:43;;;;;;;1.58;1.10;;;;;;;;;;4992596;28;20731;-79
2021/06/28 14:08:09;;;;;;;2.85;1.25;;;;;;;;;;4994746;28;20041;-77
2021/06/28 14:10:36;;;;;;;2.22;1.17;;;;;;;;;;4992598;28;20035;-75
2021/06/28 14:13:03;;;;;;;3.70;1.30;;;;;;;;;;4992717;28;20034;-76
2021/06/28 14:15:29;;;;;;;1.75;0.98;;;;;;;;;;4992406;28;20542;-77
2021/06/28 14:17:55;;;;;;;1.02;1.00;;;;;;;;;;4999548;28;20066;-77
2021/06/28 14:20:22;;;;;;;2.25;1.33;;;;;;;;;;5001786;28;20022;-78
2021/06/28 14:22:49;;;;;;;2.75;1.45;;;;;;;;;;5000971;28;20026;-76
2021/06/28 14:25:16;;;;;;;1.23;1.20;;;;;;;;;;4992694;28;20022;-76
2021/06/28 14:27:42;;;;;;;1.17;1.10;;;;;;;;;;4992730;28;20042;-77
2021/06/28 14:30:09;;;;;;;2.85;1.15;;;;;;;;;;4992790;28;20033;-76
2021/06/28 14:32:35;;;;;;;1.70;1.58;;;;;;;;;;4992198;28;20113;-76
2021/06/28 14:35:02;;;;;;;1.40;1.27;;;;;;;;;;4993152;28;20038;-76
2021/06/28 14:37:28;;;;;;;2.28;1.33;;;;;;;;;;5004171;28;20079;-76
2021/06/28 14:39:54;;;;;;;1.33;1.33;;;;;;;;;;4996060;28;20430;-77
2021/06/28 14:42:20;;;;;;;0.90;0.90;;;;;;;;;;5004144;28;20085;-77
2021/06/28 14:44:49;;;;;;;1.75;1.30;;;;;;;;;;4996171;28;20076;-77
2021/06/28 14:47:15;;;;;;;1.45;1.08;;;;;;;;;;4996162;28;20049;-77
2021/06/28 14:49:41;;;;;;;2.15;1.38;;;;;;;;;;4996258;28;20431;-77